createdAt,value
2018-07-21T00:02:16.332Z,91.80
2018-07-21T00:04:45.299Z,92.00
2018-07-21T00:07:14.319Z,92.30
2018-07-21T00:09:43.291Z,92.60
2018-07-21T00:12:12.319Z,92.80
2018-07-21T00:14:41.471Z,93.10
2018-07-21T00:22:08.291Z,93.90
2018-07-21T00:24:37.263Z,94.10
2018-07-21T00:27:06.786Z,94.30
2018-07-21T00:32:05.007Z,94.90
2018-07-21T00:34:33.979Z,95.00
2018-07-21T00:37:02.942Z,95.00
2018-07-21T00:39:31.970Z,95.10
2018-07-21T00:42:00.979Z,95.00
2018-07-21T00:44:29.976Z,94.80
2018-07-21T00:46:58.935Z,94.80
2018-07-21T00:49:27.980Z,94.80
2018-07-21T00:51:56.932Z,94.80
2018-07-21T00:54:25.900Z,95.00
2018-07-21T00:56:54.900Z,95.20
2018-07-21T00:59:23.880Z,95.30
2018-07-21T01:01:52.852Z,95.50
2018-07-21T01:04:21.812Z,95.80
2018-07-21T01:06:50.784Z,95.80
2018-07-21T01:09:19.787Z,96.10
2018-07-21T01:11:48.819Z,96.60
2018-07-21T01:14:17.756Z,96.90
2018-07-21T01:16:46.740Z,97.30
2018-07-21T01:21:44.357Z,98.20
2018-07-21T01:24:13.333Z,98.60
2018-07-21T01:26:42.328Z,99.10
2018-07-21T01:29:11.356Z,99.40
2018-07-21T01:31:40.391Z,99.90
2018-07-21T01:34:09.428Z,99.90
2018-07-21T01:36:38.434Z,99.90
2018-07-21T01:39:09.135Z,99.90
2018-07-21T01:41:38.111Z,99.90
2018-07-21T01:46:36.775Z,99.90
2018-07-21T01:49:05.767Z,99.90
2018-07-21T01:51:35.891Z,99.90
2018-07-21T01:54:05.647Z,99.90
2018-07-21T01:56:34.751Z,99.90
2018-07-21T01:59:03.751Z,99.90
2018-07-21T02:01:32.726Z,99.90
2018-07-21T02:04:01.744Z,99.90
2018-07-21T02:06:30.717Z,99.90
2018-07-21T02:08:59.718Z,99.90
2018-07-21T02:11:28.701Z,99.90
2018-07-21T02:16:26.304Z,99.90
2018-07-21T02:21:23.971Z,99.90
2018-07-21T02:23:53.016Z,99.90
2018-07-21T02:26:21.911Z,99.90
2018-07-21T02:28:51.228Z,99.90
2018-07-21T02:31:20.308Z,99.90
2018-07-21T02:36:18.035Z,99.90
2018-07-21T02:38:47.003Z,99.90
2018-07-21T02:41:16.037Z,99.90
2018-07-21T02:43:45.016Z,99.90
2018-07-21T02:46:14.031Z,99.90
2018-07-21T02:51:11.639Z,99.90
2018-07-21T02:53:40.645Z,99.90
2018-07-21T02:56:09.647Z,99.90
2018-07-21T02:58:38.631Z,99.90
2018-07-21T03:03:36.451Z,99.90
2018-07-21T03:08:36.107Z,99.90
2018-07-21T03:11:05.085Z,99.90
2018-07-21T03:25:22.359Z,99.90
2018-07-21T03:27:51.468Z,99.90
2018-07-21T03:30:20.411Z,99.90
2018-07-21T03:32:50.159Z,99.90
2018-07-21T03:37:47.767Z,99.90
2018-07-21T03:42:45.434Z,99.90
2018-07-21T03:45:14.387Z,99.90
2018-07-21T03:47:44.047Z,99.90
2018-07-21T03:50:12.979Z,99.90
2018-07-21T03:55:10.705Z,99.90
2018-07-21T04:02:37.693Z,99.90
2018-07-21T04:05:06.711Z,99.90
2018-07-21T04:07:37.405Z,99.90
2018-07-21T04:10:06.628Z,99.90
2018-07-21T04:15:06.693Z,99.90
2018-07-21T04:17:36.796Z,99.90
2018-07-21T04:20:06.745Z,99.90
2018-07-21T04:22:36.674Z,99.90
2018-07-21T04:25:07.529Z,99.90
2018-07-21T04:32:35.252Z,99.90
2018-07-21T04:37:32.900Z,99.90
2018-07-21T04:40:01.840Z,99.90
2018-07-21T04:44:59.454Z,99.90
2018-07-21T04:49:57.131Z,99.90
2018-07-21T04:52:26.479Z,99.90
2018-07-21T04:54:55.447Z,99.90
2018-07-21T04:57:24.428Z,99.90
2018-07-21T04:59:53.395Z,99.90
2018-07-21T05:02:22.380Z,99.90
2018-07-21T05:04:51.424Z,99.90
2018-07-21T05:07:20.453Z,99.90
2018-07-21T05:09:49.408Z,99.90
2018-07-21T05:12:18.552Z,99.90
2018-07-21T05:14:47.591Z,99.90
2018-07-21T05:19:45.358Z,99.90
2018-07-21T05:22:14.387Z,99.90
2018-07-21T05:27:12.176Z,97.60
2018-07-21T05:32:09.969Z,94.30
2018-07-21T05:34:38.967Z,91.80
2018-07-21T05:37:08.510Z,90.10
2018-07-21T05:39:37.511Z,86.40
2018-07-21T05:42:07.173Z,83.60
2018-07-21T05:44:37.066Z,85.50
2018-07-21T05:47:07.167Z,88.60
2018-07-21T05:49:37.081Z,90.30
2018-07-21T05:52:07.163Z,91.70
2018-07-21T05:54:37.108Z,93.40
2018-07-21T05:59:35.744Z,95.30
2018-07-21T06:02:04.756Z,95.40
2018-07-21T06:04:33.708Z,95.20
2018-07-21T06:07:02.727Z,95.00
2018-07-21T06:09:31.662Z,95.00
2018-07-21T06:12:00.634Z,95.30
2018-07-21T06:14:29.616Z,94.50
2018-07-21T06:16:58.635Z,93.80
2018-07-21T06:24:26.076Z,91.10
2018-07-21T06:26:55.047Z,90.20
2018-07-21T06:29:24.006Z,89.70
2018-07-21T06:34:21.658Z,86.50
2018-07-21T06:36:50.633Z,84.10
2018-07-21T06:39:19.635Z,85.60
2018-07-21T06:41:48.591Z,87.20
2018-07-21T06:44:17.652Z,87.90
2018-07-21T06:46:47.547Z,89.70
2018-07-21T06:54:13.750Z,87.00
2018-07-21T06:56:42.718Z,84.00
2018-07-21T06:59:11.731Z,83.50
2018-07-21T07:01:40.739Z,83.80
2018-07-21T07:04:09.764Z,84.20
2018-07-21T07:09:08.734Z,79.00
2018-07-21T07:11:37.798Z,78.20
2018-07-21T07:22:53.481Z,77.50
2018-07-21T07:25:22.471Z,70.80
2018-07-21T07:40:25.687Z,68.30
2018-07-21T07:42:54.691Z,67.20
2018-07-21T07:45:24.424Z,63.50
2018-07-21T07:47:53.470Z,64.20
2018-07-21T07:50:22.499Z,64.70
2018-07-21T07:52:51.472Z,63.20
2018-07-21T07:55:20.446Z,60.80
2018-07-21T08:00:18.616Z,58.20
2018-07-21T08:02:47.627Z,56.10
2018-07-21T08:05:16.607Z,54.70
2018-07-21T08:07:45.626Z,56.70
2018-07-21T08:10:14.632Z,58.40
2018-07-21T08:12:43.568Z,59.80
2018-07-21T08:17:41.249Z,60.40
2018-07-21T08:20:10.346Z,61.80
2018-07-21T08:22:39.395Z,61.90
2018-07-21T08:25:08.399Z,64.20
2018-07-21T08:27:38.687Z,65.40
2018-07-21T08:30:08.351Z,66.00
2018-07-21T08:32:37.957Z,66.80
2018-07-21T08:35:07.892Z,67.30
2018-07-21T08:37:38.213Z,67.40
2018-07-21T08:40:09.399Z,68.30
2018-07-21T08:42:38.387Z,68.90
2018-07-21T08:45:08.488Z,68.30
2018-07-21T08:52:54.412Z,69.40
2018-07-21T08:55:23.373Z,67.70
2018-07-21T08:57:52.458Z,68.30
2018-07-21T09:02:50.115Z,66.00
2018-07-21T09:05:19.132Z,66.60
2018-07-21T09:07:48.103Z,65.70
2018-07-21T09:10:17.756Z,67.10
2018-07-21T09:12:46.727Z,66.90
2018-07-21T09:15:15.728Z,66.50
2018-07-21T09:17:44.827Z,67.00
2018-07-21T09:20:13.825Z,67.20
2018-07-21T09:22:42.839Z,67.90
2018-07-21T09:25:11.871Z,68.10
2018-07-21T09:27:40.900Z,68.40
2018-07-21T09:32:38.545Z,68.90
2018-07-21T09:35:08.034Z,68.10
2018-07-21T09:37:38.012Z,66.80
2018-07-21T09:40:26.036Z,67.70
2018-07-21T09:42:55.085Z,65.80
2018-07-21T09:45:24.069Z,66.00
2018-07-21T09:47:53.064Z,65.00
2018-07-21T09:50:22.103Z,66.20
2018-07-21T09:57:48.468Z,63.00
2018-07-21T10:00:22.916Z,62.60
2018-07-21T10:02:51.936Z,61.90
2018-07-21T10:07:49.559Z,62.70
2018-07-21T10:10:18.572Z,62.60
2018-07-21T10:12:47.603Z,62.90
2018-07-21T10:15:16.784Z,59.60
2018-07-21T10:17:45.820Z,60.20
2018-07-21T10:20:15.292Z,59.30
2018-07-21T10:22:44.316Z,59.50
2018-07-21T10:25:22.204Z,59.70
2018-07-21T10:27:53.080Z,59.30
2018-07-21T10:30:22.113Z,59.80
2018-07-21T10:32:51.128Z,60.00
2018-07-21T10:37:48.805Z,59.80
2018-07-21T10:40:17.774Z,59.30
2018-07-21T10:42:46.740Z,59.40
2018-07-21T10:47:44.452Z,59.90
2018-07-21T10:50:13.472Z,59.60
2018-07-21T10:52:42.500Z,58.60
2018-07-21T10:55:12.240Z,59.00
2018-07-21T10:57:41.207Z,60.10
2018-07-21T11:00:10.345Z,57.10
2018-07-21T11:02:40.073Z,57.00
2018-07-21T11:05:09.231Z,58.10
2018-07-21T11:07:39.195Z,58.40
2018-07-21T11:10:08.320Z,58.70
2018-07-21T11:12:39.425Z,58.50
2018-07-21T11:15:08.906Z,58.50
2018-07-21T11:17:38.799Z,59.60
2018-07-21T11:20:08.828Z,59.80
2018-07-21T11:22:38.483Z,58.50
2018-07-21T11:25:08.738Z,57.00
2018-07-21T11:27:38.522Z,57.50
2018-07-21T11:30:08.460Z,57.80
2018-07-21T11:32:38.430Z,58.70
2018-07-21T11:37:37.144Z,58.40
2018-07-21T11:40:06.283Z,56.30
2018-07-21T11:42:35.239Z,56.90
2018-07-21T11:45:04.461Z,56.50
2018-07-21T11:47:33.516Z,57.00
2018-07-21T11:54:59.861Z,56.40
2018-07-21T11:57:28.869Z,55.80
2018-07-21T11:59:57.835Z,55.50
2018-07-21T12:02:26.868Z,53.90
2018-07-21T12:04:55.851Z,55.50
2018-07-21T12:07:24.848Z,53.30
2018-07-21T12:09:53.856Z,53.50
2018-07-21T12:12:22.854Z,52.80
2018-07-21T12:14:51.868Z,55.30
2018-07-21T12:17:20.872Z,53.80
2018-07-21T12:19:49.858Z,53.00
2018-07-21T12:22:18.834Z,53.50
2018-07-21T12:27:16.622Z,52.20
2018-07-21T12:29:45.603Z,51.00
2018-07-21T12:32:14.578Z,51.60
2018-07-21T12:34:43.556Z,53.10
2018-07-21T12:37:12.562Z,53.20
2018-07-21T12:39:41.523Z,52.50
2018-07-21T12:42:10.532Z,52.10
2018-07-21T12:44:39.551Z,53.40
2018-07-21T12:47:08.760Z,51.80
2018-07-21T12:49:38.664Z,50.60
2018-07-21T12:52:07.656Z,53.50
2018-07-21T12:54:36.650Z,51.50
2018-07-21T12:57:05.746Z,49.90
2018-07-21T12:59:34.753Z,52.20
2018-07-21T13:02:03.748Z,49.90
2018-07-21T13:04:32.699Z,50.90
2018-07-21T13:09:30.334Z,49.80
2018-07-21T13:11:59.339Z,50.60
2018-07-21T13:14:28.311Z,51.70
2018-07-21T13:19:25.884Z,52.00
2018-07-21T13:21:54.878Z,52.60
2018-07-21T13:24:23.883Z,52.80
2018-07-21T13:26:52.859Z,52.60
2018-07-21T13:29:21.860Z,52.80
2018-07-21T13:31:52.191Z,52.50
2018-07-21T13:34:21.174Z,52.00
2018-07-21T13:36:50.163Z,51.90
2018-07-21T13:41:47.799Z,52.10
2018-07-21T13:44:16.774Z,51.40
2018-07-21T13:46:45.775Z,52.40
2018-07-21T13:49:14.751Z,50.80
2018-07-21T13:51:43.746Z,51.20
2018-07-21T13:54:12.780Z,51.80
2018-07-21T13:59:10.420Z,52.30
2018-07-21T14:04:08.135Z,53.00
2018-07-21T14:06:37.141Z,51.10
2018-07-21T14:09:07.750Z,52.00
2018-07-21T14:11:36.791Z,52.00
2018-07-21T14:14:06.032Z,51.30
2018-07-21T14:16:35.027Z,51.80
2018-07-21T14:19:04.617Z,51.00
2018-07-21T14:21:33.615Z,51.80
2018-07-21T14:24:02.628Z,51.00
2018-07-21T14:26:31.605Z,51.20
2018-07-21T14:29:00.612Z,51.10
2018-07-21T14:31:29.615Z,52.10
2018-07-21T14:33:58.645Z,51.50
2018-07-21T14:36:28.563Z,51.60
2018-07-21T14:38:57.463Z,52.00
2018-07-21T14:41:26.425Z,52.60
2018-07-21T14:43:56.078Z,53.20
2018-07-21T14:46:25.068Z,53.60
2018-07-21T14:48:54.001Z,54.70
2018-07-21T14:53:51.631Z,54.10
2018-07-21T14:56:20.632Z,55.00
2018-07-21T14:58:49.588Z,54.70
2018-07-21T15:01:18.567Z,55.00
2018-07-21T15:03:47.645Z,52.80
2018-07-21T15:06:16.578Z,52.90
2018-07-21T15:08:45.557Z,53.00
2018-07-21T15:11:14.536Z,53.30
2018-07-21T15:13:43.547Z,53.80
2018-07-21T15:16:12.557Z,54.00
2018-07-21T15:18:41.580Z,54.30
2018-07-21T15:21:10.565Z,54.20
2018-07-21T15:23:39.638Z,54.30
2018-07-21T15:26:09.594Z,53.30
2018-07-21T15:31:08.285Z,55.70
2018-07-21T15:33:37.218Z,55.70
2018-07-21T15:36:06.267Z,55.50
2018-07-21T15:38:35.259Z,56.40
2018-07-21T15:41:04.213Z,58.40
2018-07-21T15:43:33.238Z,59.40
2018-07-21T15:46:02.189Z,59.90
2018-07-21T15:48:31.218Z,61.00
2018-07-21T15:51:00.720Z,62.30
2018-07-21T15:55:58.323Z,64.60
2018-07-21T16:00:56.160Z,64.70
2018-07-21T16:03:25.124Z,66.00
2018-07-21T16:05:54.067Z,65.90
2018-07-21T16:08:23.085Z,65.00
2018-07-21T16:10:52.267Z,65.70
2018-07-21T16:13:21.227Z,64.50
2018-07-21T16:15:50.204Z,64.70
2018-07-21T16:18:19.168Z,64.30
2018-07-21T16:20:49.205Z,65.10
2018-07-21T16:23:18.184Z,62.60
2018-07-21T16:25:47.162Z,62.10
2018-07-21T16:28:16.853Z,62.00
2018-07-21T16:30:45.823Z,62.00
2018-07-21T16:33:14.763Z,61.90
2018-07-21T16:35:45.294Z,63.00
2018-07-21T16:38:14.411Z,61.50
2018-07-21T16:40:43.416Z,60.50
2018-07-21T16:43:12.435Z,60.30
2018-07-21T16:45:41.502Z,61.30
2018-07-21T16:48:10.691Z,61.20
2018-07-21T16:55:38.396Z,59.30
2018-07-21T16:58:07.391Z,58.70
2018-07-21T17:00:36.492Z,59.10
2018-07-21T17:05:34.134Z,61.20
2018-07-21T17:08:03.217Z,59.20
2018-07-21T17:10:32.112Z,60.00
2018-07-21T17:13:01.095Z,60.60
2018-07-21T17:15:30.099Z,61.10
2018-07-21T17:20:28.632Z,60.30
2018-07-21T17:22:57.598Z,58.30
2018-07-21T17:25:26.626Z,59.10
2018-07-21T17:30:24.369Z,58.70
2018-07-21T17:32:53.356Z,59.00
2018-07-21T17:35:22.556Z,59.20
2018-07-21T17:37:51.582Z,60.20
2018-07-21T17:40:20.572Z,59.50
2018-07-21T17:42:49.651Z,58.60
2018-07-21T17:47:50.403Z,58.80
2018-07-21T17:50:19.354Z,58.90
2018-07-21T17:52:48.329Z,59.30
2018-07-21T17:55:17.319Z,59.60
2018-07-21T18:00:15.020Z,60.20
2018-07-21T18:05:12.622Z,59.50
2018-07-21T18:07:41.644Z,59.70
2018-07-21T18:10:10.629Z,60.10
2018-07-21T18:12:40.127Z,60.10
2018-07-21T18:15:10.045Z,60.30
2018-07-21T18:17:40.117Z,60.90
2018-07-21T18:20:10.082Z,61.10
2018-07-21T18:22:40.018Z,60.80
2018-07-21T18:27:38.753Z,61.70
2018-07-21T18:32:36.492Z,62.70
2018-07-21T18:35:05.484Z,62.90
2018-07-21T18:37:34.523Z,63.30
2018-07-21T18:40:03.559Z,63.20
2018-07-21T18:42:32.536Z,63.90
2018-07-21T18:45:01.504Z,65.00
2018-07-21T18:47:30.491Z,64.70
2018-07-21T18:52:28.079Z,65.90
2018-07-21T18:54:57.068Z,66.60
2018-07-21T18:57:26.096Z,66.50
2018-07-21T18:59:55.159Z,66.60
2018-07-21T19:02:24.123Z,67.30
2018-07-21T19:04:53.158Z,67.40
2018-07-21T19:07:22.195Z,68.00
2018-07-21T19:09:51.884Z,68.30
2018-07-21T19:12:26.297Z,68.50
2018-07-21T19:14:55.340Z,68.40
2018-07-21T19:19:58.711Z,68.90
2018-07-21T19:22:27.708Z,69.20
2018-07-21T19:24:57.359Z,69.70
2018-07-21T19:27:31.979Z,71.30
2018-07-21T19:30:01.687Z,71.70
2018-07-21T19:32:36.159Z,72.20
2018-07-21T19:35:05.139Z,72.30
2018-07-21T19:37:39.485Z,72.50
2018-07-21T19:40:08.549Z,73.10
2018-07-21T19:45:06.250Z,73.20
2018-07-21T19:47:35.655Z,74.10
2018-07-21T19:50:04.949Z,75.70
2018-07-21T19:55:02.690Z,75.10
2018-07-21T19:57:32.116Z,75.00
2018-07-21T20:00:01.930Z,74.00
2018-07-21T20:02:30.971Z,74.20
2018-07-21T20:07:28.759Z,74.90
2018-07-21T20:09:57.747Z,74.50
2018-07-21T20:12:26.823Z,74.70
2018-07-21T20:14:55.835Z,74.60
2018-07-21T20:17:24.971Z,75.00
2018-07-21T20:19:54.110Z,75.10
2018-07-21T20:22:23.110Z,75.30
2018-07-21T20:24:52.173Z,75.80
2018-07-21T20:27:21.205Z,75.70
2018-07-21T20:29:50.234Z,76.00
2018-07-21T20:34:47.898Z,76.10
2018-07-21T20:37:16.933Z,76.30
2018-07-21T20:39:46.076Z,76.40
2018-07-21T20:42:14.996Z,76.10
2018-07-21T20:44:43.978Z,76.60
2018-07-21T20:47:13.049Z,76.30
2018-07-21T20:49:42.049Z,76.40
2018-07-21T20:52:11.727Z,76.60
2018-07-21T21:02:55.320Z,77.00
2018-07-21T21:05:24.339Z,77.20
2018-07-21T21:07:53.511Z,77.60
2018-07-21T21:10:22.515Z,77.90
2018-07-21T21:12:51.763Z,77.80
2018-07-21T21:15:20.793Z,78.00
2018-07-21T21:17:49.937Z,78.00
2018-07-21T21:20:19.303Z,78.20
2018-07-21T21:22:48.333Z,78.20
2018-07-21T21:25:17.348Z,78.60
2018-07-21T21:27:46.975Z,78.90
2018-07-21T21:30:15.978Z,79.20
2018-07-21T21:32:44.970Z,79.40
2018-07-21T21:37:43.267Z,79.90
2018-07-21T21:40:13.061Z,80.00
2018-07-21T21:42:43.095Z,80.10
2018-07-21T21:45:12.003Z,80.40
2018-07-21T21:47:40.996Z,80.40
2018-07-21T21:50:10.027Z,80.80
2018-07-21T21:52:39.026Z,80.80
2018-07-21T21:55:08.074Z,80.90
2018-07-21T21:57:37.134Z,81.10
2018-07-21T22:00:09.185Z,81.20
2018-07-21T22:02:38.331Z,81.60
2018-07-21T22:05:07.349Z,81.50
2018-07-21T22:07:36.322Z,82.10
2018-07-21T22:10:05.343Z,82.10
2018-07-21T22:15:03.805Z,82.90
2018-07-21T22:17:32.792Z,83.10
2018-07-21T22:20:01.836Z,83.40
2018-07-21T22:22:31.547Z,83.40
2018-07-21T22:25:00.536Z,83.60
2018-07-21T22:27:29.547Z,83.90
2018-07-21T22:29:58.523Z,84.40
2018-07-21T22:32:27.513Z,84.50
2018-07-21T22:34:56.487Z,84.70
2018-07-21T22:39:54.219Z,85.50
2018-07-21T22:42:23.179Z,85.60
2018-07-21T22:44:52.132Z,85.40
2018-07-21T22:47:21.227Z,85.80
2018-07-21T22:49:50.202Z,86.50
2018-07-21T22:54:47.864Z,87.00
2018-07-21T22:57:16.804Z,87.10
2018-07-21T23:02:14.414Z,87.80
2018-07-21T23:07:12.383Z,88.00
2018-07-21T23:09:41.792Z,87.60
2018-07-21T23:12:10.795Z,87.70
2018-07-21T23:14:39.822Z,87.70
2018-07-21T23:17:08.973Z,87.80
2018-07-21T23:19:38.016Z,87.70
2018-07-21T23:22:07.219Z,88.10
2018-07-21T23:24:36.215Z,88.10
2018-07-21T23:27:05.166Z,88.00
2018-07-21T23:29:34.292Z,88.30
2018-07-21T23:32:03.319Z,88.50
2018-07-21T23:34:32.259Z,88.50
2018-07-21T23:39:29.877Z,88.30
2018-07-21T23:41:58.843Z,88.80
2018-07-21T23:44:27.837Z,90.00
2018-07-21T23:46:56.828Z,90.10
2018-07-21T23:49:25.793Z,90.20
2018-07-21T23:51:54.923Z,90.40
2018-07-21T23:54:23.891Z,90.80
2018-07-21T23:59:21.864Z,90.30
